Time;durP1;ratioP1;P1;durP2;ratioP2;P2;SDS_P1;SDS_P2;PMS_P1;PMS_P2;Temp;Humidity;BMP_temperature;BMP_pressure;BME280_temperature;BME280_humidity;BME280_pressure;Samples;Min_cycle;Max_cycle;Signal;HPM_P1;HPM_P2
2023/10/03 00:02:08;;;;;;;8.90;5.30;;;;;;;7.67;71.49;97240.41;6319875;28;20067;-69
2023/10/03 00:05:11;;;;;;;5.82;4.80;;;;;;;7.64;71.83;97249.28;6319326;28;20125;-69
2023/10/03 00:08:15;;;;;;;7.32;5.35;;;;;;;7.59;71.91;97243.41;6318940;28;20046;-69
2023/10/03 00:11:20;;;;;;;5.10;4.18;;;;;;;7.57;71.91;97254.88;6318643;28;20055;-69
2023/10/03 00:14:21;;;;;;;5.18;4.63;;;;;;;7.51;72.16;97250.78;6319152;28;20120;-69
2023/10/03 00:17:24;;;;;;;20.80;12.23;;;;;;;7.33;72.06;97215.84;6319592;28;20056;-71
2023/10/03 00:20:28;;;;;;;6.80;5.57;;;;;;;7.55;72.38;97252.31;6319518;28;20054;-70
2023/10/03 00:23:33;;;;;;;7.97;5.18;;;;;;;7.55;72.25;97256.72;6319161;28;20051;-70
2023/10/03 00:26:34;;;;;;;5.68;4.63;;;;;;;7.55;72.32;97248.84;6318551;28;20051;-70
2023/10/03 00:29:40;;;;;;;7.45;5.40;;;;;;;7.48;71.96;97250.91;6319604;28;20055;-70
2023/10/03 00:32:45;;;;;;;12.35;5.35;;;;;;;7.46;72.46;97255.38;6319619;28;20078;-70
2023/10/03 00:35:47;;;;;;;6.30;5.00;;;;;;;7.42;72.27;97251.22;6316715;28;20347;-70
2023/10/03 00:38:50;;;;;;;6.95;5.00;;;;;;;7.38;72.49;97254.88;6319508;28;20082;-70
2023/10/03 00:41:55;;;;;;;8.48;5.65;;;;;;;7.33;72.64;97251.63;6319497;28;20042;-70
2023/10/03 00:45:00;;;;;;;7.18;5.30;;;;;;;7.25;72.81;97244.13;6319065;28;20039;-70
2023/10/03 00:48:08;;;;;;;6.30;4.93;;;;;;;7.15;72.71;97242.84;6318072;28;20436;-71
2023/10/03 00:51:11;;;;;;;9.80;5.13;;;;;;;7.15;72.69;97248.91;6319121;28;20052;-70
2023/10/03 00:54:13;;;;;;;7.05;4.90;;;;;;;7.12;72.75;97258.69;6319537;28;20083;-70
2023/10/03 00:57:18;;;;;;;7.15;5.15;;;;;;;7.08;73.08;97257.97;6323816;28;20134;-71
2023/10/03 01:00:21;;;;;;;9.98;5.70;;;;;;;7.03;73.24;97256.47;6323561;28;20062;-69
2023/10/03 01:03:28;;;;;;;5.60;4.47;;;;;;;7.04;73.21;97253.78;6323839;28;20121;-70
2023/10/03 01:06:30;;;;;;;7.30;4.10;;;;;;;7.11;73.21;97255.22;6322758;28;20075;-70
2023/10/03 01:09:33;;;;;;;5.78;3.95;;;;;;;7.18;73.52;97263.63;6305147;28;20429;-70
2023/10/03 01:12:40;;;;;;;6.10;4.05;;;;;;;7.25;73.10;97259.00;6323903;28;20092;-70
2023/10/03 01:15:49;;;;;;;7.40;4.13;;;;;;;7.27;72.96;97254.50;6323786;28;20142;-70
2023/10/03 01:18:52;;;;;;;6.40;4.40;;;;;;;7.32;72.91;97265.63;6323675;28;20052;-70
2023/10/03 01:21:57;;;;;;;6.82;4.30;;;;;;;7.38;72.59;97262.72;6323401;28;20044;-70
2023/10/03 01:24:59;;;;;;;8.13;4.47;;;;;;;7.27;72.53;97257.13;6323137;28;20101;-70
2023/10/03 01:28:02;;;;;;;6.00;4.35;;;;;;;7.29;72.79;97260.53;6322073;28;20195;-70
2023/10/03 01:31:03;;;;;;;5.00;4.40;;;;;;;7.22;73.17;97264.34;6323549;28;20066;-70
2023/10/03 01:34:06;;;;;;;4.78;3.72;;;;;;;7.15;73.50;97262.00;6323660;28;20036;-70
2023/10/03 01:37:08;;;;;;;8.03;5.13;;;;;;;7.08;73.33;97259.75;6323019;28;20056;-70
2023/10/03 01:40:16;;;;;;;17.27;10.30;;;;;;;7.03;73.28;97259.94;6323326;28;20448;-70
2023/10/03 01:43:20;;;;;;;11.07;8.02;;;;;;;6.93;73.45;97259.47;6322819;28;20083;-70
2023/10/03 01:46:28;;;;;;;15.40;7.20;;;;;;;6.82;73.40;97251.28;6322077;28;20512;-70
2023/10/03 01:49:35;;;;;;;10.80;6.15;;;;;;;6.79;73.32;97256.63;6323216;28;20079;-70
2023/10/03 01:52:42;;;;;;;8.38;6.10;;;;;;;6.70;73.03;97252.66;6322086;28;20062;-70
2023/10/03 01:55:44;;;;;;;10.15;6.75;;;;;;;6.63;73.36;97239.91;6320818;28;20051;-69
2023/10/03 01:58:46;;;;;;;12.63;6.90;;;;;;;6.63;72.94;97255.59;6322473;28;20138;-69
2023/10/03 02:01:48;;;;;;;14.63;7.05;;;;;;;6.59;73.07;97249.63;6322275;28;20036;-69
2023/10/03 02:04:50;;;;;;;12.35;7.45;;;;;;;6.52;72.92;97248.22;6321973;28;20079;-70
2023/10/03 02:11:19;;;;;;;13.20;7.53;;;;;;;6.44;72.64;97251.16;6320782;28;19989;-71
2023/10/03 02:14:22;;;;;;;12.15;7.30;;;;;;;6.42;72.62;97245.13;6322280;28;20052;-71
2023/10/03 02:17:25;;;;;;;13.88;9.38;;;;;;;6.32;72.54;97229.94;6321695;28;20078;-71
2023/10/03 02:20:30;;;;;;;17.90;9.40;;;;;;;6.43;72.48;97248.63;6322074;28;20576;-69
2023/10/03 02:23:37;;;;;;;19.65;9.35;;;;;;;6.37;72.30;97238.41;6322496;28;20051;-69
2023/10/03 02:26:41;;;;;;;15.90;8.90;;;;;;;6.52;71.88;97258.69;6321730;28;20128;-70
2023/10/03 02:29:48;;;;;;;12.68;8.25;;;;;;;6.61;71.66;97257.44;6322281;28;20047;-70
2023/10/03 02:32:54;;;;;;;14.38;8.75;;;;;;;6.70;71.36;97257.88;6321329;28;20123;-69
2023/10/03 02:35:58;;;;;;;13.55;6.00;;;;;;;6.84;71.68;97261.66;6319352;28;20052;-69
2023/10/03 02:39:00;;;;;;;;;;;;;;;6.94;71.68;97266.44;6321634;28;20058;-69
2023/10/03 02:42:04;;;;;;;10.85;6.75;;;;;;;7.03;70.97;97254.72;6321657;28;20022;-70
2023/10/03 02:45:06;;;;;;;9.65;7.20;;;;;;;7.18;70.78;97259.25;6320353;28;20124;-69
2023/10/03 02:48:14;;;;;;;7.28;4.72;;;;;;;7.41;70.46;97265.19;6322204;28;20140;-69
2023/10/03 02:51:15;;;;;;;7.28;4.68;;;;;;;7.55;70.00;97257.56;6321834;28;20519;-70
2023/10/03 02:54:22;;;;;;;7.07;4.60;;;;;;;7.74;70.16;97261.94;6320169;28;20071;-69
2023/10/03 02:57:24;;;;;;;5.72;3.92;;;;;;;7.90;69.76;97267.28;6319025;28;20044;-70
2023/10/03 03:00:28;;;;;;;6.72;4.80;;;;;;;7.97;69.57;97259.06;6319919;28;20106;-71
2023/10/03 03:03:31;;;;;;;6.05;4.03;;;;;;;7.99;69.23;97252.00;6320574;28;20048;-70
2023/10/03 03:06:33;;;;;;;4.18;3.30;;;;;;;8.17;69.02;97270.34;6302490;28;20052;-70
2023/10/03 03:09:37;;;;;;;6.25;3.60;;;;;;;8.23;68.75;97265.66;6320940;28;20047;-70
2023/10/03 03:12:44;;;;;;;4.63;4.07;;;;;;;8.27;68.88;97261.13;6320936;28;20044;-70
2023/10/03 03:15:53;;;;;;;5.97;4.13;;;;;;;8.36;68.84;97268.53;6320758;28;20054;-71
2023/10/03 03:18:56;;;;;;;8.18;4.45;;;;;;;8.48;68.24;97267.09;6319698;28;20060;-69
2023/10/03 03:21:57;;;;;;;7.22;4.22;;;;;;;8.65;68.15;97271.50;6320150;28;20143;-69
2023/10/03 03:25:00;;;;;;;6.35;3.92;;;;;;;8.76;68.02;97271.81;6319968;28;20048;-69
2023/10/03 03:28:15;;;;;;;8.40;3.73;;;;;;;8.81;67.74;97264.56;6320150;28;20528;-69
2023/10/03 03:31:22;;;;;;;6.95;3.97;;;;;;;9.10;66.74;97273.53;6320358;28;20533;-69
2023/10/03 03:34:25;;;;;;;6.18;3.50;;;;;;;9.16;66.51;97274.97;6320375;28;20044;-69
2023/10/03 03:37:37;;;;;;;6.90;4.25;;;;;;;9.17;66.03;97271.41;6319670;28;20066;-70
2023/10/03 03:40:39;;;;;;;6.10;3.88;;;;;;;9.29;65.53;97278.66;6320089;28;20048;-70
2023/10/03 03:43:42;;;;;;;5.82;3.97;;;;;;;9.46;65.32;97282.16;6320405;28;20602;-70
2023/10/03 03:46:45;;;;;;;;;;;;;;;9.66;64.78;97289.81;6320460;28;20215;-69
2023/10/03 03:49:46;;;;;;;5.85;3.30;;;;;;;9.85;64.14;97282.63;6319502;28;20386;-69
2023/10/03 03:52:53;;;;;;;7.72;4.15;;;;;;;10.04;63.71;97286.84;6319653;28;20086;-69
2023/10/03 03:55:58;;;;;;;4.70;3.92;;;;;;;10.20;63.00;97276.31;6320098;28;20044;-70
2023/10/03 03:59:00;;;;;;;9.30;4.22;;;;;;;10.48;62.60;97286.13;6319776;28;20044;-70
2023/10/03 04:02:03;;;;;;;7.45;3.90;;;;;;;10.64;62.29;97291.34;6319799;28;20040;-69
2023/10/03 04:05:08;;;;;;;13.48;4.07;;;;;;;10.76;61.96;97295.91;6319986;28;20044;-70
2023/10/03 04:08:10;;;;;;;10.00;4.20;;;;;;;10.91;61.10;97292.34;6317500;28;20059;-70
2023/10/03 04:11:13;;;;;;;12.23;4.07;;;;;;;10.92;60.93;97272.13;6319422;28;20138;-70
2023/10/03 04:14:15;;;;;;;;;;;;;;;11.17;61.32;97298.66;6319570;28;20054;-69
2023/10/03 04:17:19;;;;;;;5.00;3.03;;;;;;;11.14;60.96;97290.97;6319616;28;20297;-69
2023/10/03 04:20:31;;;;;;;9.02;3.65;;;;;;;11.21;61.12;97292.28;6319475;28;20063;-69
2023/10/03 04:23:39;;;;;;;4.85;3.17;;;;;;;11.42;60.83;97302.47;6319587;28;20072;-69
2023/10/03 04:26:42;;;;;;;4.82;2.88;;;;;;;11.46;60.91;97298.69;6317527;28;20043;-70
2023/10/03 04:29:44;;;;;;;8.43;3.58;;;;;;;11.68;60.88;97301.69;6319202;28;20059;-70
2023/10/03 04:32:48;;;;;;;6.20;3.10;;;;;;;11.97;60.57;97306.09;6319323;28;20589;-70
2023/10/03 04:35:50;;;;;;;3.92;3.15;;;;;;;12.34;59.54;97304.56;6318932;28;20134;-69
2023/10/03 04:38:51;;;;;;;5.95;2.95;;;;;;;12.47;59.04;97297.56;6319078;28;20509;-70
2023/10/03 04:41:58;;;;;;;4.72;3.30;;;;;;;12.59;58.81;97299.38;6318578;28;20044;-68
2023/10/03 04:45:05;;;;;;;4.55;3.95;;;;;;;12.72;58.54;97304.69;6319033;28;20140;-69
2023/10/03 04:48:08;;;;;;;7.35;4.43;;;;;;;12.82;58.40;97302.28;6318625;28;20131;-71
2023/10/03 04:51:14;;;;;;;10.25;4.45;;;;;;;12.99;57.72;97307.31;6318455;28;20131;-70
2023/10/03 04:54:18;;;;;;;8.98;4.35;;;;;;;13.21;56.67;97311.09;6318685;28;20051;-70
2023/10/03 04:57:22;;;;;;;7.65;4.28;;;;;;;13.43;56.21;97294.66;6318934;28;20461;-70
2023/10/03 05:00:24;;;;;;;5.47;3.55;;;;;;;13.81;54.95;97310.44;6318797;28;20614;-70
2023/10/03 05:03:28;;;;;;;4.03;2.53;;;;;;;13.92;53.54;97307.88;6318583;28;20055;-70
2023/10/03 05:06:35;;;;;;;5.93;2.28;;;;;;;14.07;53.44;97310.41;6318933;28;20090;-70
2023/10/03 05:09:37;;;;;;;7.75;2.45;;;;;;;14.28;53.32;97311.50;6318522;28;20127;-68
2023/10/03 05:12:40;;;;;;;;;;;;;;;14.82;53.22;97313.69;6319509;28;20598;-68
2023/10/03 05:15:44;;;;;;;4.03;2.08;;;;;;;15.29;51.53;97315.53;6318804;28;19927;-70
2023/10/03 05:18:46;;;;;;;7.13;2.40;;;;;;;15.73;50.15;97305.94;6318594;28;20044;-69
2023/10/03 05:21:48;;;;;;;5.10;2.60;;;;;;;16.02;49.18;97312.44;6318392;28;20068;-69
2023/10/03 05:24:54;;;;;;;3.03;2.33;;;;;;;16.21;48.65;97316.25;6318340;28;20133;-69
2023/10/03 05:27:56;;;;;;;4.50;1.88;;;;;;;16.59;46.94;97313.16;6318408;28;20059;-69
2023/10/03 05:30:58;;;;;;;2.05;1.70;;;;;;;17.86;44.19;97313.06;6316853;28;20051;-69
2023/10/03 05:34:00;;;;;;;4.45;2.00;;;;;;;19.22;42.11;97310.59;6318365;28;20071;-69
2023/10/03 05:37:02;;;;;;;2.83;1.33;;;;;;;19.59;39.96;97314.28;6317815;28;20066;-69
2023/10/03 05:40:20;;;;;;;3.00;1.75;;;;;;;19.18;40.72;97308.34;6318688;28;20156;-69
2023/10/03 05:43:22;;;;;;;2.47;1.48;;;;;;;20.22;39.24;97305.63;6322778;28;20135;-69
2023/10/03 05:46:28;;;;;;;1.63;1.23;;;;;;;21.60;36.82;97315.94;6323467;28;20121;-69
2023/10/03 05:49:32;;;;;;;2.15;1.00;;;;;;;21.14;37.08;97309.91;6323162;28;20058;-70
2023/10/03 05:52:37;;;;;;;3.40;1.30;;;;;;;21.27;36.18;97316.53;6322887;28;20042;-69
2023/10/03 05:55:45;;;;;;;2.30;1.30;;;;;;;23.62;32.67;97314.97;6322339;28;20109;-69
2023/10/03 05:58:47;;;;;;;1.13;1.02;;;;;;;25.24;29.21;97306.31;6322639;28;20054;-69
2023/10/03 06:01:50;;;;;;;5.07;1.60;;;;;;;26.13;27.90;97309.16;6322661;28;20063;-69
2023/10/03 06:04:54;;;;;;;1.58;1.20;;;;;;;28.15;26.35;97316.13;6322626;28;20261;-68
2023/10/03 06:07:57;;;;;;;1.17;0.80;;;;;;;30.95;23.28;97318.94;6322086;28;20066;-68
2023/10/03 06:11:03;;;;;;;2.67;1.30;;;;;;;32.51;20.44;97312.56;6321897;28;20131;-69
2023/10/03 06:14:08;;;;;;;2.30;1.10;;;;;;;33.33;19.46;97312.06;6321541;28;20044;-69
2023/10/03 06:17:12;;;;;;;6.65;4.70;;;;;;;33.45;18.96;97309.34;6321487;28;20142;-69
2023/10/03 06:20:14;;;;;;;2.63;1.67;;;;;;;34.30;18.28;97313.56;6322154;28;20121;-69
2023/10/03 06:23:17;;;;;;;3.45;1.58;;;;;;;35.98;17.70;97313.97;6322202;28;20061;-69
2023/10/03 06:26:20;;;;;;;1.60;1.00;;;;;;;36.81;16.98;97315.91;6322020;28;20046;-70
2023/10/03 06:29:23;;;;;;;1.65;0.90;;;;;;;37.06;16.39;97316.19;6321185;28;20056;-68
2023/10/03 06:32:29;;;;;;;3.60;1.10;;;;;;;36.64;16.72;97314.06;6322029;28;20051;-68
2023/10/03 06:35:33;;;;;;;1.48;1.00;;;;;;;37.00;16.57;97314.47;6321385;28;20062;-70
2023/10/03 06:38:36;;;;;;;2.70;1.50;;;;;;;35.47;16.98;97309.53;6320957;28;20052;-69
2023/10/03 06:41:40;;;;;;;3.15;1.55;;;;;;;33.36;18.31;97305.31;6321678;28;20493;-69
2023/10/03 06:44:42;;;;;;;3.80;1.37;;;;;;;30.09;21.13;97301.03;6321560;28;20043;-69
2023/10/03 06:47:49;;;;;;;2.17;1.10;;;;;;;26.86;24.66;97293.84;6321678;28;20044;-70
2023/10/03 06:50:53;;;;;;;2.42;1.45;;;;;;;24.44;27.88;97290.56;6321350;28;20044;-69
2023/10/03 06:53:56;;;;;;;2.57;1.73;;;;;;;22.96;30.03;97288.16;6320011;28;20072;-70
2023/10/03 06:57:03;;;;;;;2.80;1.00;;;;;;;22.14;30.77;97279.06;6321164;28;20032;-69
2023/10/03 07:00:06;;;;;;;5.55;2.13;;;;;;;21.06;32.83;97282.09;6321014;28;20093;-70
2023/10/03 07:03:14;;;;;;;3.25;1.48;;;;;;;20.31;33.72;97272.66;6321400;28;20052;-69
2023/10/03 07:06:17;;;;;;;1.98;1.20;;;;;;;20.07;34.89;97279.41;6321342;28;20403;-69
2023/10/03 07:09:21;;;;;;;3.28;1.77;;;;;;;20.10;35.28;97279.13;6320980;28;20044;-69
2023/10/03 07:12:24;;;;;;;1.98;1.55;;;;;;;20.73;34.54;97274.78;6321069;28;20127;-70
2023/10/03 07:15:26;;;;;;;2.53;2.00;;;;;;;21.72;32.83;97272.69;6319067;28;20054;-70
2023/10/03 07:18:30;;;;;;;3.05;1.85;;;;;;;22.73;31.19;97271.84;6320819;28;20039;-68
2023/10/03 07:21:36;;;;;;;4.28;1.48;;;;;;;24.86;27.77;97272.09;6320819;28;20164;-69
2023/10/03 07:24:39;;;;;;;2.85;1.48;;;;;;;26.80;25.62;97276.56;6320784;28;20557;-69
2023/10/03 07:27:41;;;;;;;2.72;1.67;;;;;;;28.21;23.63;97285.56;6320784;28;20111;-70
2023/10/03 07:30:43;;;;;;;2.55;0.82;;;;;;;29.24;22.97;97290.03;6320461;28;20062;-69
2023/10/03 07:33:47;;;;;;;4.38;1.42;;;;;;;30.13;21.75;97288.72;6320543;28;20177;-69
2023/10/03 07:36:49;;;;;;;5.10;1.80;;;;;;;31.36;21.00;97285.00;6319166;28;20111;-69
2023/10/03 07:39:53;;;;;;;2.22;1.13;;;;;;;33.08;19.21;97290.41;6320515;28;20036;-69
2023/10/03 07:42:54;;;;;;;1.77;1.10;;;;;;;35.06;17.42;97284.22;6319708;28;20040;-69
2023/10/03 07:46:00;;;;;;;1.67;0.82;;;;;;;36.50;16.58;97299.06;6319732;28;20374;-68
2023/10/03 07:49:02;;;;;;;1.42;0.85;;;;;;;36.55;15.70;97290.94;6320192;28;20043;-70
2023/10/03 07:52:06;;;;;;;0.75;0.70;;;;;;;36.28;15.76;97296.31;6320229;28;20048;-70
2023/10/03 07:55:09;;;;;;;1.05;0.80;;;;;;;35.20;16.42;97296.50;6319490;28;20509;-69
2023/10/03 07:58:14;;;;;;;;;;;;;;;34.64;17.63;97288.06;6320256;28;20074;-69
2023/10/03 08:01:19;;;;;;;1.30;1.00;;;;;;;33.15;18.01;97274.81;6319144;28;19920;-69
2023/10/03 08:04:24;;;;;;;3.30;1.10;;;;;;;32.18;18.59;97270.16;6319458;28;20047;-69
2023/10/03 08:07:26;;;;;;;3.92;1.80;;;;;;;32.20;19.17;97270.78;6319318;28;20079;-68
2023/10/03 08:10:32;;;;;;;2.67;1.73;;;;;;;32.57;17.99;97278.94;6319371;28;20086;-70
2023/10/03 08:13:38;;;;;;;1.75;1.58;;;;;;;33.14;18.11;97273.13;6319229;28;20052;-69
2023/10/03 08:16:44;;;;;;;1.80;0.82;;;;;;;32.84;17.46;97273.97;6319581;28;20624;-69
2023/10/03 08:19:45;;;;;;;1.08;0.90;;;;;;;32.26;17.73;97276.38;6319509;28;20539;-69
2023/10/03 08:22:52;;;;;;;1.08;0.70;;;;;;;32.56;17.84;97263.66;6320143;28;20044;-69
2023/10/03 08:26:01;;;;;;;2.40;1.20;;;;;;;32.95;17.62;97269.63;6319624;28;20059;-69
2023/10/03 08:29:05;;;;;;;2.30;1.58;;;;;;;32.56;17.71;97266.41;6319126;28;20044;-69
2023/10/03 08:32:09;;;;;;;1.83;0.88;;;;;;;31.08;19.15;97259.03;6319179;28;20071;-70
2023/10/03 08:35:12;;;;;;;1.30;0.80;;;;;;;30.58;19.26;97250.78;6319368;28;20139;-69
2023/10/03 08:38:14;;;;;;;1.77;1.10;;;;;;;31.38;19.24;97252.97;6319347;28;20047;-69
2023/10/03 08:41:28;;;;;;;2.30;0.60;;;;;;;32.19;17.84;97255.53;6319389;28;20289;-70
2023/10/03 08:44:41;;;;;;;0.85;0.60;;;;;;;32.85;17.28;97263.91;6318751;28;20131;-70
2023/10/03 08:47:49;;;;;;;0.90;0.70;;;;;;;32.95;17.08;97253.28;6318363;28;20048;-69
2023/10/03 08:51:02;;;;;;;2.70;1.30;;;;;;;33.52;17.00;97248.19;6319221;28;20044;-69
2023/10/03 08:54:18;;;;;;;2.10;0.90;;;;;;;33.80;16.39;97257.56;6317760;28;20455;-69
2023/10/03 08:57:23;;;;;;;2.85;0.80;;;;;;;33.78;16.64;97240.59;6319142;28;20445;-70
2023/10/03 09:00:40;;;;;;;1.95;1.27;;;;;;;34.40;16.01;97243.56;6318480;28;20054;-69
2023/10/03 09:03:51;;;;;;;2.63;1.40;;;;;;;34.79;15.99;97243.81;6318638;28;20040;-69
2023/10/03 09:07:00;;;;;;;1.38;0.88;;;;;;;34.82;15.67;97246.06;6318210;28;20056;-70
2023/10/03 09:10:08;;;;;;;1.00;0.73;;;;;;;34.07;16.26;97248.88;6318711;28;20533;-69
2023/10/03 09:13:16;;;;;;;1.00;0.77;;;;;;;31.62;18.30;97254.00;6318588;28;20206;-69
2023/10/03 09:16:19;;;;;;;9.30;1.10;;;;;;;29.32;20.30;97243.75;6321101;28;20048;-69
2023/10/03 09:19:41;;;;;;;1.63;0.82;;;;;;;29.89;19.98;97233.28;6323732;28;20505;-69
2023/10/03 09:22:46;;;;;;;;;;;;;;;30.14;20.10;97231.50;6323974;28;20055;-69
2023/10/03 09:25:55;;;;;;;1.27;0.90;;;;;;;31.66;18.62;97234.28;6323575;28;20401;-70
2023/10/03 09:29:04;;;;;;;1.67;0.82;;;;;;;33.88;16.89;97240.81;6323101;28;20064;-69
2023/10/03 09:32:17;;;;;;;1.83;0.90;;;;;;;33.93;16.45;97238.19;6322835;28;20052;-69
2023/10/03 09:35:21;;;;;;;2.80;1.40;;;;;;;31.71;18.11;97237.19;6323499;28;20036;-69
2023/10/03 09:38:46;;;;;;;3.50;1.50;;;;;;;31.22;19.41;97238.84;6321424;28;20063;-70
2023/10/03 09:41:56;;;;;;;1.98;1.20;;;;;;;31.08;18.60;97231.84;6323320;28;20413;-70
2023/10/03 09:44:59;;;;;;;4.07;1.42;;;;;;;29.81;20.22;97226.22;6322953;28;20458;-69
2023/10/03 09:48:05;;;;;;;2.42;1.27;;;;;;;29.19;20.90;97217.53;6322389;28;20058;-69
2023/10/03 09:51:13;;;;;;;3.53;1.38;;;;;;;28.60;21.22;97229.94;6322595;28;20040;-69
2023/10/03 09:54:24;;;;;;;2.70;1.60;;;;;;;27.57;22.33;97218.19;6320438;28;20063;-68
2023/10/03 09:57:29;;;;;;;3.90;1.80;;;;;;;26.81;23.05;97212.63;6322397;28;20200;-68
2023/10/03 10:00:50;;;;;;;2.22;1.30;;;;;;;25.93;23.98;97209.13;6322934;28;20060;-70
2023/10/03 10:03:59;;;;;;;2.22;1.30;;;;;;;25.35;24.55;97205.41;6322312;28;20063;-70
2023/10/03 10:07:29;;;;;;;2.88;1.42;;;;;;;25.74;23.95;97207.81;6322071;28;20059;-70
2023/10/03 10:10:34;;;;;;;1.60;1.15;;;;;;;26.16;22.79;97203.59;6321011;28;20127;-69
2023/10/03 10:13:57;;;;;;;3.00;1.00;;;;;;;25.45;23.25;97204.09;6322541;28;20117;-69
2023/10/03 10:17:04;;;;;;;1.60;1.00;;;;;;;24.84;24.20;97204.16;6322418;28;20040;-68
2023/10/03 10:20:13;;;;;;;4.13;1.20;;;;;;;25.53;23.16;97208.56;6322323;28;20047;-69
2023/10/03 10:23:16;;;;;;;1.77;1.30;;;;;;;25.41;23.78;97199.25;6321246;28;20063;-70
2023/10/03 10:26:31;;;;;;;4.15;1.38;;;;;;;24.85;23.91;97194.22;6321749;28;20044;-70
2023/10/03 10:29:35;;;;;;;1.27;1.10;;;;;;;23.79;25.05;97201.09;6321762;28;20052;-70
2023/10/03 10:32:57;;;;;;;1.73;0.80;;;;;;;22.70;26.47;97201.59;6321310;28;20394;-68
2023/10/03 10:36:09;;;;;;;1.83;1.27;;;;;;;23.33;26.11;97197.38;6321517;28;20051;-70
2023/10/03 10:39:13;;;;;;;3.78;1.30;;;;;;;23.07;26.54;97198.41;6321765;28;20036;-70
2023/10/03 10:42:16;;;;;;;3.58;1.55;;;;;;;23.06;26.27;97192.19;6321659;28;20036;-70
2023/10/03 10:45:20;;;;;;;1.92;1.30;;;;;;;22.74;26.63;97193.03;6321794;28;20059;-69
2023/10/03 10:48:39;;;;;;;2.22;1.13;;;;;;;22.45;27.43;97190.00;6321411;28;20048;-68
2023/10/03 10:51:55;;;;;;;4.55;1.52;;;;;;;22.18;28.43;97192.00;6321506;28;20055;-70
2023/10/03 10:54:58;;;;;;;;;;;;;;;22.07;28.21;97189.59;6321182;28;20044;-70
2023/10/03 10:58:03;;;;;;;4.22;1.25;;;;;;;21.36;29.14;97194.28;6321281;28;20001;-70
2023/10/03 11:01:04;;;;;;;3.75;2.13;;;;;;;21.20;28.33;97187.03;6321423;28;20112;-70
2023/10/03 11:04:06;;;;;;;2.08;1.30;;;;;;;20.97;28.51;97197.41;6321090;28;20058;-70
2023/10/03 11:07:23;;;;;;;2.45;1.20;;;;;;;20.54;28.85;97191.06;6320801;28;20145;-70
2023/10/03 11:10:25;;;;;;;2.35;1.20;;;;;;;20.29;29.28;97192.63;6320570;28;20121;-70
2023/10/03 11:13:27;;;;;;;2.28;1.27;;;;;;;20.22;29.75;97196.09;6321182;28;20044;-69
2023/10/03 11:16:31;;;;;;;2.45;1.90;;;;;;;20.43;28.99;97193.94;6321556;28;20040;-69
2023/10/03 11:19:35;;;;;;;4.82;1.90;;;;;;;20.18;29.69;97191.03;6321576;28;20050;-69
2023/10/03 11:22:39;;;;;;;5.13;2.60;;;;;;;20.25;29.24;97182.41;6321458;28;20040;-68
2023/10/03 11:25:51;;;;;;;7.55;3.67;;;;;;;19.91;29.71;97177.72;6321013;28;20036;-69
2023/10/03 11:28:53;;;;;;;2.70;1.42;;;;;;;19.96;29.80;97181.63;6319949;28;20055;-70
2023/10/03 11:31:55;;;;;;;5.85;2.97;;;;;;;19.90;29.98;97176.03;6302126;28;20059;-70
2023/10/03 11:34:58;;;;;;;4.40;2.47;;;;;;;19.62;30.46;97185.88;6320279;28;20120;-68
2023/10/03 11:38:06;;;;;;;3.50;2.47;;;;;;;19.61;30.30;97182.34;6320024;28;20054;-71
2023/10/03 11:41:07;;;;;;;3.15;2.10;;;;;;;19.54;30.56;97186.63;6320022;28;20145;-69
2023/10/03 11:44:22;;;;;;;2.22;1.80;;;;;;;19.42;30.88;97187.78;6320005;28;20135;-70
2023/10/03 11:47:26;;;;;;;4.05;1.90;;;;;;;19.19;31.42;97188.16;6320241;28;20519;-69
2023/10/03 11:50:28;;;;;;;3.25;1.65;;;;;;;19.04;31.49;97179.78;6319320;28;20040;-69
2023/10/03 11:53:31;;;;;;;2.67;2.10;;;;;;;19.00;31.89;97177.56;6319917;28;20429;-69
2023/10/03 11:56:39;;;;;;;4.28;2.10;;;;;;;18.94;32.39;97189.63;6319480;28;20138;-70
2023/10/03 11:59:43;;;;;;;3.35;1.90;;;;;;;18.79;32.76;97181.22;6318498;28;20040;-69
2023/10/03 12:02:45;;;;;;;4.03;1.95;;;;;;;18.67;33.15;97177.00;6318434;28;20048;-70
2023/10/03 12:05:49;;;;;;;2.85;1.80;;;;;;;18.70;33.12;97173.22;6318963;28;20056;-71
2023/10/03 12:08:50;;;;;;;3.88;1.90;;;;;;;18.57;33.66;97177.03;6318378;28;20543;-70
2023/10/03 12:11:52;;;;;;;2.80;1.98;;;;;;;18.58;33.96;97180.53;6319055;28;20047;-69
2023/10/03 12:14:57;;;;;;;3.78;2.42;;;;;;;18.60;34.40;97187.41;6318749;28;20527;-69
2023/10/03 12:17:59;;;;;;;3.22;2.38;;;;;;;18.65;34.14;97181.63;6318590;28;20409;-70
2023/10/03 12:21:04;;;;;;;2.85;2.10;;;;;;;18.58;34.28;97180.53;6319724;28;20040;-70
2023/10/03 12:24:06;;;;;;;5.70;2.40;;;;;;;18.58;34.25;97184.03;6318878;28;20537;-70
2023/10/03 12:27:07;;;;;;;5.63;2.80;;;;;;;18.52;33.92;97183.78;6318633;28;20047;-71
2023/10/03 12:30:15;;;;;;;3.10;1.98;;;;;;;18.39;33.93;97192.88;6319071;28;20528;-70
2023/10/03 12:33:19;;;;;;;2.72;2.05;;;;;;;18.31;34.53;97181.25;6319276;28;20509;-69
2023/10/03 12:36:22;;;;;;;3.53;2.17;;;;;;;18.27;34.23;97188.69;6318184;28;20521;-70
2023/10/03 12:39:24;;;;;;;5.20;2.70;;;;;;;18.14;34.70;97186.28;6318904;28;20040;-71
2023/10/03 12:42:29;;;;;;;2.63;1.60;;;;;;;18.13;34.59;97189.09;6318461;28;20052;-70
2023/10/03 12:45:30;;;;;;;5.38;2.40;;;;;;;17.84;35.09;97187.22;6318368;28;20568;-69
2023/10/03 12:48:38;;;;;;;3.78;2.15;;;;;;;17.51;35.88;97197.19;6318720;28;20046;-70
2023/10/03 12:51:42;;;;;;;3.47;2.13;;;;;;;17.22;36.12;97189.09;6317790;28;20036;-70
2023/10/03 12:54:49;;;;;;;5.05;2.60;;;;;;;17.18;36.41;97197.47;6318565;28;20418;-70
2023/10/03 12:57:59;;;;;;;4.40;2.90;;;;;;;16.94;37.07;97187.97;6318379;28;20142;-69
2023/10/03 13:01:01;;;;;;;5.35;2.80;;;;;;;16.72;37.37;97190.75;6317772;28;20579;-70
2023/10/03 13:04:06;;;;;;;3.60;3.03;;;;;;;16.61;37.49;97191.63;6318309;28;20429;-69
2023/10/03 13:07:12;;;;;;;4.38;3.50;;;;;;;16.55;37.74;97185.03;6317932;28;20139;-69
2023/10/03 13:10:18;;;;;;;3.50;2.70;;;;;;;16.38;37.81;97193.56;6318421;28;20055;-70
2023/10/03 13:13:23;;;;;;;2.53;2.00;;;;;;;16.30;38.20;97185.38;6317190;28;20044;-69
2023/10/03 13:16:24;;;;;;;3.20;2.15;;;;;;;16.33;38.19;97180.69;6317872;28;20148;-69
2023/10/03 13:19:28;;;;;;;4.25;2.13;;;;;;;16.19;38.43;97198.72;6317723;28;20050;-70
2023/10/03 13:22:31;;;;;;;4.13;2.58;;;;;;;16.02;38.89;97198.31;6318204;28;20052;-70
2023/10/03 13:25:34;;;;;;;3.33;2.35;;;;;;;16.09;38.72;97193.34;6318229;28;20127;-69
2023/10/03 13:28:42;;;;;;;3.28;2.10;;;;;;;15.81;39.38;97181.47;6318559;28;20048;-69
2023/10/03 13:31:52;;;;;;;6.07;2.80;;;;;;;15.84;39.20;97199.78;6318533;28;20589;-70
2023/10/03 13:34:54;;;;;;;6.88;3.00;;;;;;;15.74;39.64;97197.06;6318679;28;20537;-70
2023/10/03 13:37:56;;;;;;;7.38;3.17;;;;;;;15.57;39.71;97203.69;6317804;28;20090;-69
2023/10/03 13:40:58;;;;;;;5.47;3.13;;;;;;;15.47;40.06;97213.31;6318237;28;20036;-69
2023/10/03 13:44:05;;;;;;;7.40;3.58;;;;;;;15.42;40.30;97215.47;6318216;28;20520;-70
2023/10/03 13:47:11;;;;;;;7.82;4.20;;;;;;;15.34;40.26;97217.88;6318446;28;20138;-70
2023/10/03 13:50:17;;;;;;;4.25;3.00;;;;;;;15.17;40.51;97212.13;6317990;28;20068;-71
2023/10/03 13:53:20;;;;;;;6.18;4.40;;;;;;;15.10;40.76;97210.91;6317043;28;20509;-70
2023/10/03 13:56:23;;;;;;;6.93;3.85;;;;;;;14.79;41.46;97207.97;6318114;28;20523;-70
2023/10/03 13:59:27;;;;;;;5.68;2.50;;;;;;;14.80;41.45;97220.25;6316213;28;20055;-69
2023/10/03 14:02:28;;;;;;;5.22;2.65;;;;;;;14.68;41.77;97215.03;6320353;28;20044;-69
2023/10/03 14:05:31;;;;;;;2.70;2.10;;;;;;;14.56;42.13;97217.66;6322741;28;20040;-69
2023/10/03 14:08:36;;;;;;;4.43;2.25;;;;;;;14.45;42.43;97214.09;6321836;28;20055;-69
2023/10/03 14:11:40;;;;;;;5.55;3.08;;;;;;;14.34;42.78;97225.50;6319423;28;20577;-69
2023/10/03 14:14:42;;;;;;;8.93;3.20;;;;;;;14.28;43.12;97226.78;6321539;28;20427;-70
2023/10/03 14:17:46;;;;;;;;;;;;;;;14.24;43.21;97233.28;6323366;28;20036;-70
2023/10/03 14:20:48;;;;;;;6.88;3.30;;;;;;;14.09;43.46;97237.03;6323080;28;19927;-68
2023/10/03 14:23:53;;;;;;;5.07;2.95;;;;;;;14.00;43.72;97232.44;6321552;28;20552;-69
2023/10/03 14:26:57;;;;;;;9.45;3.65;;;;;;;13.79;43.91;97230.38;6321935;28;20040;-70
2023/10/03 14:30:01;;;;;;;5.15;2.70;;;;;;;13.58;44.31;97221.34;6320792;28;20572;-70
2023/10/03 14:33:13;;;;;;;6.25;2.90;;;;;;;13.65;44.28;97235.81;6321951;28;20042;-70
2023/10/03 14:36:14;;;;;;;4.13;2.85;;;;;;;13.58;44.45;97237.19;6321266;28;20513;-70
2023/10/03 14:39:29;;;;;;;5.38;2.75;;;;;;;13.51;44.46;97238.59;6321857;28;20413;-70